Time;durP1;ratioP1;P1;durP2;ratioP2;P2;SDS_P1;SDS_P2;PMS_P1;PMS_P2;Temp;Humidity;BMP_temperature;BMP_pressure;BME280_temperature;BME280_humidity;BME280_pressure;Samples;Min_cycle;Max_cycle;Signal;HPM_P1;HPM_P2
2023/04/02 00:01:37;;;;;;;24.90;10.83;;;9.50;99.90;;;;;;5036710;28;20584;-62
2023/04/02 00:04:04;;;;;;;21.23;10.67;;;9.50;99.90;;;;;;5003163;28;20602;-61
2023/04/02 00:06:38;;;;;;;18.23;10.57;;;9.60;99.90;;;;;;5003174;28;20191;-62
2023/04/02 00:09:28;;;;;;;21.13;11.43;;;9.50;99.90;;;;;;5023514;28;20183;-61
2023/04/02 00:11:54;;;;;;;22.30;10.53;;;9.50;99.90;;;;;;5017027;28;20653;-62
2023/04/02 00:14:33;;;;;;;21.90;11.27;;;9.40;99.90;;;;;;5018951;28;20187;-62
2023/04/02 00:17:01;;;;;;;23.67;11.40;;;9.30;99.90;;;;;;5007209;28;20650;-61
2023/04/02 00:19:47;;;;;;;18.37;9.90;;;9.40;99.90;;;;;;5028415;28;20659;-61
2023/04/02 00:22:19;;;;;;;14.83;9.00;;;9.30;99.90;;;;;;5019898;28;20180;-62
2023/04/02 00:24:45;;;;;;;20.20;9.27;;;9.20;99.90;;;;;;4995132;28;20172;-62
2023/04/02 00:27:13;;;;;;;16.63;9.97;;;9.00;99.90;;;;;;5017987;28;20277;-62
2023/04/02 00:29:49;;;;;;;16.53;9.13;;;8.90;99.90;;;;;;5010257;28;20552;-63
2023/04/02 00:32:21;;;;;;;13.23;7.80;;;8.90;99.90;;;;;;5021519;28;20549;-62
2023/04/02 00:34:47;;;;;;;15.53;7.83;;;8.90;99.90;;;;;;5016380;28;20183;-62
2023/04/02 00:37:22;;;;;;;13.60;8.07;;;8.90;99.90;;;;;;5014960;28;20652;-61
2023/04/02 00:39:50;;;;;;;13.57;7.33;;;8.80;99.90;;;;;;5007047;28;20248;-62
2023/04/02 00:42:16;;;;;;;15.93;8.53;;;8.90;99.90;;;;;;5015654;28;20645;-62
2023/04/02 00:44:44;;;;;;;13.10;8.13;;;8.90;99.90;;;;;;5027446;28;20261;-63
2023/04/02 00:47:17;;;;;;;18.83;9.43;;;9.00;99.90;;;;;;5030517;28;20709;-62
2023/04/02 00:49:43;;;;;;;18.80;10.00;;;9.00;99.90;;;;;;5020008;28;20187;-61
2023/04/02 00:52:15;;;;;;;17.87;9.73;;;9.00;99.90;;;;;;5027023;28;20248;-62
2023/04/02 00:54:49;;;;;;;19.77;10.13;;;8.90;99.90;;;;;;5019082;28;20186;-62
2023/04/02 00:57:24;;;;;;;22.73;10.33;;;9.00;99.90;;;;;;5008744;28;20210;-62
2023/04/02 00:59:53;;;;;;;20.00;10.27;;;9.00;99.90;;;;;;5010422;28;20674;-62
2023/04/02 01:02:26;;;;;;;17.03;8.67;;;9.00;99.90;;;;;;5023959;28;20199;-62
2023/04/02 01:05:04;;;;;;;20.00;10.50;;;8.90;99.90;;;;;;5022252;28;20266;-61
2023/04/02 01:08:07;;;;;;;16.93;9.40;;;8.80;99.90;;;;;;5019302;28;20181;-62
2023/04/02 01:10:49;;;;;;;19.73;10.60;;;8.70;99.90;;;;;;5020377;28;20658;-61
2023/04/02 01:13:38;;;;;;;15.00;8.60;;;8.70;99.90;;;;;;5024351;28;20216;-62
2023/04/02 01:16:22;;;;;;;17.90;9.30;;;8.80;99.90;;;;;;5027402;28;20201;-62
2023/04/02 01:18:57;;;;;;;17.37;8.17;;;8.80;99.90;;;;;;5028908;28;20186;-62
2023/04/02 01:21:54;;;;;;;16.60;8.83;;;8.80;99.90;;;;;;5022211;28;20219;-62
2023/04/02 01:24:23;;;;;;;15.73;8.90;;;8.80;99.90;;;;;;5028207;28;20172;-62
2023/04/02 01:26:58;;;;;;;12.77;7.00;;;8.80;99.90;;;;;;5034008;28;20182;-62
2023/04/02 01:29:31;;;;;;;16.87;8.47;;;8.70;99.90;;;;;;5033091;28;20182;-62
2023/04/02 01:32:13;;;;;;;18.90;8.17;;;8.70;99.90;;;;;;5015197;28;20297;-63
2023/04/02 01:34:39;;;;;;;14.97;7.70;;;8.70;99.90;;;;;;5026123;28;20178;-62
2023/04/02 01:37:31;;;;;;;15.60;8.37;;;8.60;99.90;;;;;;5012200;28;20643;-62
2023/04/02 01:40:20;;;;;;;14.83;6.73;;;8.50;99.90;;;;;;5024022;28;20190;-62
2023/04/02 01:43:23;;;;;;;17.37;8.10;;;8.50;99.90;;;;;;5023712;28;20195;-62
2023/04/02 01:45:49;;;;;;;14.37;8.00;;;8.40;99.90;;;;;;5032432;28;20178;-62
2023/04/02 01:48:23;;;;;;;14.87;8.27;;;8.50;99.90;;;;;;5025093;28;20195;-61
2023/04/02 01:50:51;;;;;;;15.50;8.17;;;8.50;99.90;;;;;;5009832;28;20198;-60
2023/04/02 01:53:19;;;;;;;14.53;8.67;;;8.60;99.90;;;;;;5027797;28;20191;-61
2023/04/02 01:55:47;;;;;;;16.77;8.90;;;8.50;99.90;;;;;;5005230;28;20187;-60
2023/04/02 01:58:17;;;;;;;18.37;9.50;;;8.60;99.90;;;;;;5011050;28;20199;-61
2023/04/02 02:00:49;;;;;;;17.37;8.10;;;8.70;99.90;;;;;;5011285;28;20183;-61
2023/04/02 02:03:16;;;;;;;15.67;8.27;;;8.50;99.90;;;;;;5025332;28;20182;-61
2023/04/02 02:05:42;;;;;;;17.23;10.03;;;8.50;99.90;;;;;;5025858;28;20282;-61
2023/04/02 02:08:25;;;;;;;19.27;9.33;;;8.60;99.90;;;;;;5008735;28;20191;-61
2023/04/02 02:10:50;;;;;;;13.47;8.93;;;8.50;99.90;;;;;;5013325;28;20204;-61
2023/04/02 02:13:16;;;;;;;19.23;8.90;;;8.30;99.90;;;;;;5020241;28;20198;-61
2023/04/02 02:15:43;;;;;;;17.27;8.67;;;8.40;99.90;;;;;;5032760;28;20189;-63
2023/04/02 02:18:11;;;;;;;18.57;9.37;;;8.40;99.90;;;;;;5017319;28;20237;-61
2023/04/02 02:20:37;;;;;;;18.30;9.00;;;8.60;99.90;;;;;;5021232;28;20200;-62
2023/04/02 02:23:05;;;;;;;19.60;9.33;;;8.70;99.90;;;;;;5024473;28;20211;-62
2023/04/02 02:25:33;;;;;;;17.47;10.17;;;8.70;99.90;;;;;;5020991;28;20186;-62
2023/04/02 02:28:11;;;;;;;16.97;9.20;;;8.60;99.90;;;;;;5003473;28;20246;-61
2023/04/02 02:30:46;;;;;;;16.60;8.40;;;8.60;99.90;;;;;;5005817;28;20202;-62
2023/04/02 02:33:19;;;;;;;16.10;7.73;;;8.40;99.90;;;;;;5003461;28;20237;-62
2023/04/02 02:35:56;;;;;;;19.90;9.43;;;8.20;99.90;;;;;;5014723;28;20199;-63
2023/04/02 02:38:55;;;;;;;19.63;10.63;;;8.20;99.90;;;;;;5024091;28;20187;-62
2023/04/02 02:41:44;;;;;;;18.37;9.23;;;8.10;99.90;;;;;;5016019;28;20197;-60
2023/04/02 02:44:10;;;;;;;18.83;9.43;;;8.10;99.90;;;;;;5021846;28;20202;-60
2023/04/02 02:46:41;;;;;;;16.37;9.07;;;8.10;99.90;;;;;;5023324;28;20265;-61
2023/04/02 02:49:13;;;;;;;18.03;9.43;;;8.20;99.90;;;;;;5018993;28;20179;-62
2023/04/02 02:51:46;;;;;;;18.80;9.70;;;8.20;99.90;;;;;;5020242;28;20701;-61
2023/04/02 02:54:13;;;;;;;16.90;9.63;;;8.20;99.90;;;;;;5009256;28;20188;-61
2023/04/02 02:56:45;;;;;;;19.77;9.73;;;8.20;99.90;;;;;;5024922;28;20274;-61
2023/04/02 02:59:13;;;;;;;19.70;10.73;;;8.30;99.90;;;;;;5029477;28;20183;-61
2023/04/02 03:01:40;;;;;;;17.40;10.10;;;8.20;99.90;;;;;;5007312;28;20211;-61
2023/04/02 03:04:06;;;;;;;21.73;11.47;;;8.00;99.90;;;;;;5016504;28;20192;-61
2023/04/02 03:06:32;;;;;;;23.77;12.87;;;7.90;99.90;;;;;;5026599;28;20279;-61
2023/04/02 03:09:18;;;;;;;24.13;11.70;;;7.90;99.90;;;;;;5018237;28;20191;-62
2023/04/02 03:12:03;;;;;;;20.73;10.03;;;8.00;99.90;;;;;;5003893;28;20647;-62
2023/04/02 03:14:33;;;;;;;19.47;11.30;;;7.90;99.90;;;;;;5023853;28;20668;-62
2023/04/02 03:17:25;;;;;;;19.67;11.17;;;7.90;99.90;;;;;;5009914;28;20226;-61
2023/04/02 03:20:05;;;;;;;29.63;10.80;;;8.00;99.90;;;;;;5022747;28;20177;-62
2023/04/02 03:22:37;;;;;;;23.30;11.27;;;7.90;99.90;;;;;;5024503;28;20176;-61
2023/04/02 03:25:27;;;;;;;19.60;11.77;;;7.90;99.90;;;;;;5055832;28;20198;-61
2023/04/02 03:28:00;;;;;;;22.83;11.97;;;7.70;99.90;;;;;;5029641;28;20660;-61
2023/04/02 03:30:45;;;;;;;22.70;11.83;;;7.70;99.90;;;;;;5008064;28;20564;-61
2023/04/02 03:33:18;;;;;;;24.17;12.27;;;7.80;99.90;;;;;;5011365;28;20211;-61
2023/04/02 03:36:19;;;;;;;27.70;12.80;;;8.00;99.90;;;;;;5005108;28;20179;-62
2023/04/02 03:39:08;;;;;;;27.37;14.20;;;8.00;99.90;;;;;;5012244;28;20173;-62
2023/04/02 03:41:47;;;;;;;25.77;12.43;;;7.90;99.90;;;;;;5007251;28;20235;-61
2023/04/02 03:44:32;;;;;;;22.17;11.83;;;7.90;99.90;;;;;;5040164;28;20201;-61
2023/04/02 03:47:04;;;;;;;26.97;13.70;;;7.80;99.90;;;;;;5014819;28;20188;-61
2023/04/02 03:49:45;;;;;;;25.10;14.77;;;7.80;99.90;;;;;;5017973;28;20176;-61
2023/04/02 03:52:21;;;;;;;28.33;13.77;;;7.80;99.90;;;;;;5002229;28;20199;-61
2023/04/02 03:54:47;;;;;;;26.53;14.43;;;7.80;99.90;;;;;;5029650;28;20233;-61
2023/04/02 03:57:42;;;;;;;24.03;13.80;;;7.70;99.90;;;;;;5040266;28;20195;-62
2023/04/02 04:00:18;;;;;;;29.10;14.93;;;7.80;99.90;;;;;;5004093;28;20200;-61
2023/04/02 04:02:51;;;;;;;26.97;14.03;;;7.80;99.90;;;;;;5025219;28;20265;-62
2023/04/02 04:05:33;;;;;;;22.03;13.10;;;7.90;99.90;;;;;;5020800;28;20193;-61
2023/04/02 04:08:03;;;;;;;25.10;12.03;;;7.80;99.90;;;;;;5005102;28;20236;-62
2023/04/02 04:10:30;;;;;;;30.37;14.93;;;7.80;99.90;;;;;;5014539;28;20632;-61
2023/04/02 04:13:12;;;;;;;21.43;12.10;;;7.70;99.90;;;;;;5024783;28;20178;-61
2023/04/02 04:15:44;;;;;;;25.73;14.33;;;7.60;99.90;;;;;;5026998;28;20258;-61
2023/04/02 04:18:18;;;;;;;27.23;15.80;;;7.50;99.90;;;;;;5013544;28;20313;-60
2023/04/02 04:20:55;;;;;;;28.97;15.97;;;7.40;99.90;;;;;;5023624;28;20658;-61
2023/04/02 04:23:34;;;;;;;31.93;16.10;;;7.50;99.90;;;;;;5024563;28;20188;-61
2023/04/02 04:26:29;;;;;;;26.20;14.30;;;7.50;99.90;;;;;;5016215;28;20206;-61
2023/04/02 04:29:04;;;;;;;29.07;15.37;;;7.40;99.90;;;;;;4995654;28;20176;-62
2023/04/02 04:31:48;;;;;;;27.37;15.07;;;7.40;99.90;;;;;;5011735;28;20343;-62
2023/04/02 04:34:28;;;;;;;29.80;15.87;;;7.40;99.90;;;;;;5027207;28;20187;-59
2023/04/02 04:37:00;;;;;;;26.37;15.03;;;7.30;99.90;;;;;;5005239;28;20636;-61
2023/04/02 04:39:49;;;;;;;28.07;15.97;;;7.50;99.90;;;;;;5004777;28;20226;-61
2023/04/02 04:42:19;;;;;;;34.07;17.47;;;7.60;99.90;;;;;;5022215;28;20254;-61
2023/04/02 04:45:23;;;;;;;31.60;14.43;;;7.60;99.90;;;;;;5015744;28;20190;-61
2023/04/02 04:47:55;;;;;;;31.10;15.87;;;7.40;99.90;;;;;;5015980;28;20198;-61
2023/04/02 04:50:31;;;;;;;32.13;16.37;;;7.30;99.90;;;;;;5008959;28;20207;-61
2023/04/02 04:53:03;;;;;;;33.27;15.53;;;7.30;99.90;;;;;;5024963;28;20610;-61
2023/04/02 04:55:38;;;;;;;27.70;15.47;;;7.40;99.90;;;;;;5029188;28;20286;-61
2023/04/02 04:58:40;;;;;;;24.27;14.17;;;7.30;99.90;;;;;;5000126;28;20614;-61
2023/04/02 05:01:19;;;;;;;36.07;16.63;;;7.40;99.90;;;;;;5030026;28;20186;-61
2023/04/02 05:03:52;;;;;;;34.87;15.73;;;7.30;99.90;;;;;;5015002;28;20180;-60
2023/04/02 05:06:33;;;;;;;32.97;17.10;;;7.30;99.90;;;;;;5000205;28;20190;-60
2023/04/02 05:09:06;;;;;;;26.90;15.43;;;7.40;99.90;;;;;;5003549;28;20259;-61
2023/04/02 05:11:41;;;;;;;30.53;17.53;;;7.30;99.90;;;;;;5014866;28;20229;-61
2023/04/02 05:14:22;;;;;;;25.37;15.17;;;7.40;99.90;;;;;;5025529;28;20619;-61
2023/04/02 05:17:15;;;;;;;32.80;16.77;;;7.40;99.90;;;;;;5017827;28;20301;-62
2023/04/02 05:19:50;;;;;;;31.30;15.77;;;7.20;99.90;;;;;;5026941;28;20847;-61
2023/04/02 05:22:26;;;;;;;36.10;16.80;;;7.30;99.90;;;;;;5013600;28;20260;-61
2023/04/02 05:25:23;;;;;;;26.43;15.60;;;7.30;99.90;;;;;;5020576;28;20190;-61
2023/04/02 05:28:12;;;;;;;23.20;13.43;;;7.40;99.90;;;;;;5023624;28;20267;-61
2023/04/02 05:30:45;;;;;;;27.03;13.23;;;7.40;99.90;;;;;;5016587;28;20207;-61
2023/04/02 05:33:26;;;;;;;28.10;15.07;;;7.20;99.90;;;;;;5007178;28;20537;-60
2023/04/02 05:35:59;;;;;;;26.93;13.50;;;7.20;99.90;;;;;;5009625;28;20186;-61
2023/04/02 05:38:29;;;;;;;27.10;14.57;;;7.10;99.90;;;;;;5025297;28;20218;-61
2023/04/02 05:41:05;;;;;;;30.10;14.73;;;7.00;99.90;;;;;;5015328;28;20665;-62
2023/04/02 05:43:34;;;;;;;25.27;13.73;;;7.00;99.90;;;;;;5016582;28;20173;-61
2023/04/02 05:46:07;;;;;;;23.47;13.27;;;7.00;99.90;;;;;;5025241;28;20179;-61
2023/04/02 05:48:39;;;;;;;24.70;14.40;;;7.00;99.90;;;;;;5031953;28;20190;-61
2023/04/02 05:51:08;;;;;;;26.43;14.87;;;7.00;99.90;;;;;;5033738;28;20680;-61
2023/04/02 05:53:40;;;;;;;22.93;12.07;;;6.90;99.90;;;;;;5015009;28;20231;-61
2023/04/02 05:56:17;;;;;;;22.00;12.80;;;6.90;99.90;;;;;;5009710;28;20206;-60
2023/04/02 05:59:09;;;;;;;25.53;13.23;;;6.90;99.90;;;;;;5025553;28;20663;-61
2023/04/02 06:02:20;;;;;;;26.87;12.97;;;6.90;99.90;;;;;;5013689;28;20214;-61
2023/04/02 06:05:00;;;;;;;22.20;11.73;;;7.00;99.90;;;;;;5013796;28;20194;-61
2023/04/02 06:07:40;;;;;;;23.30;12.57;;;7.00;99.90;;;;;;5022776;28;20180;-61
2023/04/02 06:10:06;;;;;;;22.30;13.13;;;7.00;99.90;;;;;;5006341;28;20669;-61
2023/04/02 06:12:42;;;;;;;26.00;14.47;;;7.00;99.90;;;;;;5012441;28;20211;-61
2023/04/02 06:15:16;;;;;;;18.80;12.50;;;6.90;99.90;;;;;;5026280;28;20178;-61
2023/04/02 06:18:06;;;;;;;24.77;14.90;;;6.70;99.90;;;;;;5011282;28;20346;-60
2023/04/02 06:20:31;;;;;;;25.20;14.43;;;6.70;99.90;;;;;;5019156;28;20221;-60
2023/04/02 06:23:34;;;;;;;26.87;13.10;;;6.90;99.90;;;;;;5005395;28;20184;-60
2023/04/02 06:26:22;;;;;;;21.73;12.73;;;7.10;99.90;;;;;;5000407;28;20722;-62
2023/04/02 06:29:07;;;;;;;28.13;15.17;;;7.00;99.90;;;;;;5008041;28;20178;-60
2023/04/02 06:31:37;;;;;;;25.13;13.83;;;6.80;99.90;;;;;;5015027;28;20215;-59
2023/04/02 06:34:06;;;;;;;21.53;12.40;;;6.70;99.90;;;;;;5008132;28;20188;-60
2023/04/02 06:36:32;;;;;;;21.30;11.83;;;6.80;99.90;;;;;;5016225;28;20207;-60
2023/04/02 06:39:05;;;;;;;22.63;14.27;;;6.80;99.90;;;;;;5030187;28;20701;-60
2023/04/02 06:41:31;;;;;;;23.40;14.13;;;6.90;99.90;;;;;;5016689;28;20238;-59
2023/04/02 06:44:01;;;;;;;26.43;13.20;;;6.80;99.90;;;;;;5013310;28;20182;-62
2023/04/02 06:46:36;;;;;;;23.23;12.97;;;6.90;99.90;;;;;;4997329;28;20598;-62
2023/04/02 06:49:27;;;;;;;16.03;12.53;;;6.80;99.90;;;;;;5011229;28;20215;-62
2023/04/02 06:51:55;;;;;;;16.57;10.70;;;6.80;99.90;;;;;;5000731;28;20231;-61
2023/04/02 06:54:21;;;;;;;20.03;11.37;;;6.70;99.90;;;;;;5007536;28;20187;-62
2023/04/02 06:56:50;;;;;;;19.07;11.80;;;6.80;99.90;;;;;;5009400;28;20187;-63
2023/04/02 06:59:17;;;;;;;21.13;13.13;;;6.70;99.90;;;;;;5037431;28;20586;-62
2023/04/02 07:01:52;;;;;;;19.57;12.43;;;6.70;99.90;;;;;;4999102;28;20199;-62
2023/04/02 07:04:19;;;;;;;21.40;11.80;;;6.80;99.90;;;;;;5004376;28;20181;-61
2023/04/02 07:06:45;;;;;;;22.50;12.33;;;6.80;99.90;;;;;;5010880;28;20275;-62
2023/04/02 07:09:11;;;;;;;18.07;10.07;;;6.80;99.90;;;;;;5029905;28;20269;-62
2023/04/02 07:11:37;;;;;;;23.13;13.77;;;6.80;99.90;;;;;;5011528;28;20249;-61
2023/04/02 07:14:03;;;;;;;28.30;13.50;;;6.80;99.90;;;;;;5002866;28;20668;-62
2023/04/02 07:16:31;;;;;;;23.23;13.70;;;6.90;99.90;;;;;;5041713;28;20180;-62
2023/04/02 07:18:58;;;;;;;27.87;13.60;;;6.90;99.90;;;;;;5007010;28;20302;-62
2023/04/02 07:21:25;;;;;;;24.37;13.63;;;6.80;99.90;;;;;;5009315;28;20183;-63
2023/04/02 07:23:51;;;;;;;22.67;13.40;;;6.80;99.90;;;;;;5023491;28;20182;-62
2023/04/02 07:26:21;;;;;;;28.47;13.93;;;6.70;99.90;;;;;;5012436;28;20279;-62
2023/04/02 07:28:47;;;;;;;18.73;12.53;;;6.80;99.90;;;;;;5023494;28;20171;-62
2023/04/02 07:31:20;;;;;;;24.13;12.97;;;6.70;99.90;;;;;;5016551;28;20211;-63
2023/04/02 07:33:47;;;;;;;22.93;14.03;;;6.60;99.90;;;;;;5012098;28;20170;-62
2023/04/02 07:36:15;;;;;;;20.67;13.37;;;6.70;99.90;;;;;;5019124;28;20188;-63
2023/04/02 07:38:41;;;;;;;21.53;12.80;;;6.70;99.90;;;;;;5003773;28;20492;-61
2023/04/02 07:41:06;;;;;;;25.20;13.53;;;6.70;99.90;;;;;;5015146;28;20207;-61
2023/04/02 07:43:34;;;;;;;21.03;12.80;;;6.60;99.90;;;;;;5010552;28;20203;-62
2023/04/02 07:46:00;;;;;;;25.77;14.87;;;6.60;99.90;;;;;;4999540;28;20557;-62
2023/04/02 07:48:26;;;;;;;20.33;11.27;;;6.60;99.90;;;;;;5009493;28;20874;-62
2023/04/02 07:50:52;;;;;;;25.77;11.80;;;6.60;99.90;;;;;;5001785;28;20589;-61
2023/04/02 07:53:26;;;;;;;20.90;11.87;;;6.70;99.90;;;;;;4997158;28;20188;-63
2023/04/02 07:55:52;;;;;;;25.83;14.60;;;6.80;99.90;;;;;;5010036;28;20274;-62
2023/04/02 07:58:18;;;;;;;25.83;14.80;;;6.70;99.90;;;;;;5015511;28;20191;-62
2023/04/02 08:00:44;;;;;;;22.27;12.07;;;6.60;99.90;;;;;;5007380;28;20246;-63
2023/04/02 08:03:11;;;;;;;23.17;13.93;;;6.60;99.90;;;;;;5002205;28;20195;-62
2023/04/02 08:05:37;;;;;;;21.60;12.57;;;6.70;99.90;;;;;;4998784;28;20697;-61
2023/04/02 08:08:03;;;;;;;16.63;12.00;;;6.80;99.90;;;;;;5002260;28;20282;-62
2023/04/02 08:10:28;;;;;;;23.23;12.03;;;6.70;99.90;;;;;;5007846;28;20266;-60
2023/04/02 08:12:54;;;;;;;25.10;14.23;;;6.70;99.90;;;;;;5004943;28;20186;-59
2023/04/02 08:15:20;;;;;;;25.67;12.97;;;6.70;99.90;;;;;;5007760;28;20215;-61
2023/04/02 08:17:46;;;;;;;28.17;14.17;;;6.70;99.90;;;;;;5007795;28;20226;-60
2023/04/02 08:20:18;;;;;;;19.07;11.90;;;6.80;99.90;;;;;;5011098;28;20198;-60
2023/04/02 08:22:45;;;;;;;20.70;13.07;;;6.70;99.90;;;;;;5002923;28;20180;-63
2023/04/02 08:25:11;;;;;;;27.17;13.83;;;6.80;99.90;;;;;;4685858;28;10000674;-61
2023/04/02 08:27:37;;;;;;;23.83;14.87;;;6.70;99.90;;;;;;5000694;28;20238;-61
2023/04/02 08:30:03;;;;;;;19.53;11.40;;;6.60;99.90;;;;;;5048083;28;20285;-62
2023/04/02 08:32:29;;;;;;;25.43;15.07;;;6.80;99.90;;;;;;5001928;28;20191;-62
2023/04/02 08:34:55;;;;;;;21.67;13.93;;;6.80;99.90;;;;;;5019299;28;20546;-62
2023/04/02 08:37:20;;;;;;;26.83;14.80;;;6.70;99.90;;;;;;4998955;28;20206;-62
2023/04/02 08:39:46;;;;;;;24.03;14.73;;;6.60;99.90;;;;;;5009105;28;20192;-62
2023/04/02 08:42:58;;;;;;;23.47;12.60;;;6.80;99.90;;;;;;5004226;28;20191;-62
2023/04/02 08:45:32;;;;;;;24.20;12.63;;;6.80;99.90;;;;;;4995251;28;20558;-61
2023/04/02 08:48:01;;;;;;;22.37;15.10;;;6.80;99.90;;;;;;5006351;28;20200;-61
2023/04/02 08:50:36;;;;;;;23.83;15.10;;;6.70;99.90;;;;;;5002878;28;20211;-62
2023/04/02 08:53:20;;;;;;;22.60;13.67;;;6.60;99.90;;;;;;5009712;28;20290;-61
2023/04/02 08:56:16;;;;;;;22.23;12.77;;;6.60;99.90;;;;;;5010273;28;20171;-62
2023/04/02 08:58:55;;;;;;;31.27;14.13;;;6.70;99.90;;;;;;5010455;28;20640;-64
2023/04/02 09:01:35;;;;;;;22.53;12.20;;;6.60;99.90;;;;;;5004160;28;20187;-65
2023/04/02 09:04:04;;;;;;;21.83;12.57;;;6.70;99.90;;;;;;5010893;28;20179;-64
2023/04/02 09:06:30;;;;;;;22.10;11.90;;;6.90;99.90;;;;;;5010396;28;20179;-62
2023/04/02 09:08:57;;;;;;;27.50;14.97;;;7.00;99.90;;;;;;5004032;28;20285;-61
2023/04/02 09:11:25;;;;;;;28.80;16.57;;;6.70;99.90;;;;;;5010301;28;20656;-61
2023/04/02 09:13:56;;;;;;;20.93;13.13;;;6.70;99.90;;;;;;5006501;28;20203;-63
2023/04/02 09:16:51;;;;;;;26.57;17.20;;;6.70;99.90;;;;;;5011100;28;20175;-62
2023/04/02 09:19:36;;;;;;;25.17;15.77;;;6.60;99.90;;;;;;5010738;28;20175;-62
2023/04/02 09:22:19;;;;;;;21.17;13.53;;;6.40;99.90;;;;;;5015988;28;20178;-62
2023/04/02 09:25:00;;;;;;;16.27;10.80;;;6.40;99.90;;;;;;5030001;28;20260;-64
2023/04/02 09:27:32;;;;;;;20.87;12.07;;;6.30;99.90;;;;;;5039956;28;20577;-63
2023/04/02 09:30:09;;;;;;;22.37;12.00;;;6.30;99.90;;;;;;5015561;28;20263;-62
2023/04/02 09:32:49;;;;;;;17.00;11.67;;;6.40;99.90;;;;;;5056307;28;20180;-73
2023/04/02 09:35:21;;;;;;;21.77;11.80;;;6.30;99.90;;;;;;5003541;28;20184;-69
2023/04/02 09:37:47;;;;;;;15.30;11.30;;;6.30;99.90;;;;;;4997658;28;20648;-63
2023/04/02 09:40:25;;;;;;;19.87;11.80;;;6.30;99.90;;;;;;5024149;28;20214;-63
2023/04/02 09:43:11;;;;;;;23.40;12.30;;;6.30;99.90;;;;;;5028815;28;20221;-64
2023/04/02 09:45:37;;;;;;;16.33;11.13;;;6.40;99.90;;;;;;4673340;28;10000149;-63
2023/04/02 09:48:29;;;;;;;12.37;9.80;;;6.50;99.90;;;;;;5018583;28;20604;-62
2023/04/02 09:51:06;;;;;;;10.97;8.13;;;6.80;99.90;;;;;;5022361;28;20218;-61
2023/04/02 09:53:36;;;;;;;11.70;8.53;;;6.60;99.90;;;;;;5018467;28;20180;-64
2023/04/02 09:56:24;;;;;;;11.37;8.03;;;6.60;99.90;;;;;;5029483;28;20585;-62
2023/04/02 09:59:11;;;;;;;13.73;6.83;;;6.60;99.90;;;;;;5013359;28;20203;-62
2023/04/02 10:01:53;;;;;;;11.00;6.83;;;6.60;99.90;;;;;;5005163;28;20728;-62
2023/04/02 10:04:46;;;;;;;7.73;6.60;;;6.70;99.90;;;;;;5006755;28;20206;-64
2023/04/02 10:07:37;;;;;;;9.30;7.40;;;6.70;99.90;;;;;;5030279;28;20188;-63
2023/04/02 10:10:27;;;;;;;8.50;7.20;;;6.70;99.90;;;;;;5008956;28;20184;-63
2023/04/02 10:13:41;;;;;;;8.17;6.67;;;6.80;99.90;;;;;;5007939;28;20187;-62
2023/04/02 10:16:10;;;;;;;8.97;7.07;;;7.00;99.90;;;;;;5011944;28;20195;-62
2023/04/02 10:18:45;;;;;;;9.83;6.30;;;7.10;99.90;;;;;;5005236;28;20235;-62
2023/04/02 10:21:16;;;;;;;8.73;6.47;;;7.00;99.90;;;;;;5008107;28;20265;-62
2023/04/02 10:23:41;;;;;;;8.57;6.03;;;7.00;99.90;;;;;;5008357;28;20193;-62
2023/04/02 10:26:29;;;;;;;6.67;5.80;;;7.40;99.90;;;;;;5026725;28;20604;-62
2023/04/02 10:29:13;;;;;;;8.23;5.57;;;7.30;99.90;;;;;;4994709;28;20242;-62
2023/04/02 10:31:50;;;;;;;8.70;5.90;;;7.20;99.90;;;;;;5010259;28;20716;-62
2023/04/02 10:34:50;;;;;;;7.93;5.40;;;7.20;99.90;;;;;;5021697;28;20182;-61
2023/04/02 10:37:47;;;;;;;7.27;5.17;;;7.00;99.90;;;;;;5021466;28;20174;-62
2023/04/02 10:40:36;;;;;;;7.90;5.27;;;7.10;99.90;;;;;;5010645;28;20581;-63
2023/04/02 10:43:34;;;;;;;6.63;4.83;;;7.20;99.90;;;;;;5023437;28;20198;-63
2023/04/02 10:46:03;;;;;;;6.07;5.03;;;7.10;99.90;;;;;;5015311;28;20201;-62
2023/04/02 10:48:42;;;;;;;5.50;4.70;;;7.20;99.90;;;;;;5014688;28;20238;-62
2023/04/02 10:51:29;;;;;;;6.60;4.70;;;7.10;99.90;;;;;;5010825;28;20309;-62
2023/04/02 10:54:21;;;;;;;7.03;5.30;;;7.00;99.90;;;;;;5017930;28;20231;-62
2023/04/02 10:56:51;;;;;;;6.57;5.27;;;7.00;99.90;;;;;;5019469;28;20258;-62
2023/04/02 10:59:31;;;;;;;5.77;5.13;;;7.20;99.90;;;;;;5019928;28;20178;-61
2023/04/02 11:02:00;;;;;;;7.53;5.33;;;7.30;99.90;;;;;;5026289;28;20207;-62
2023/04/02 11:04:41;;;;;;;11.30;5.90;;;7.40;99.90;;;;;;5006903;28;20180;-62
2023/04/02 11:07:17;;;;;;;6.73;4.77;;;7.60;99.90;;;;;;5004743;28;20183;-61
2023/04/02 11:09:47;;;;;;;8.37;5.60;;;7.80;99.90;;;;;;5004075;28;20172;-61
2023/04/02 11:12:24;;;;;;;8.53;6.30;;;7.80;99.90;;;;;;4995479;28;20204;-62
2023/04/02 11:14:52;;;;;;;6.23;5.63;;;7.80;99.90;;;;;;5004936;28;20261;-62
2023/04/02 11:17:19;;;;;;;9.67;5.10;;;7.70;99.90;;;;;;4996602;28;20224;-62
2023/04/02 11:19:45;;;;;;;6.60;4.93;;;7.80;99.90;;;;;;5024401;28;20178;-62
2023/04/02 11:22:20;;;;;;;7.87;5.33;;;7.60;99.90;;;;;;5018397;28;20627;-62
2023/04/02 11:24:51;;;;;;;8.93;5.40;;;7.90;99.90;;;;;;5015160;28;20259;-62
2023/04/02 11:27:19;;;;;;;7.93;6.07;;;7.90;99.90;;;;;;5014925;28;20210;-62
2023/04/02 11:29:56;;;;;;;11.60;6.67;;;7.70;99.90;;;;;;5014696;28;20195;-62
2023/04/02 11:32:26;;;;;;;5.37;4.70;;;7.60;99.90;;;;;;5001242;28;20196;-63
2023/04/02 11:34:54;;;;;;;5.50;4.63;;;7.60;99.90;;;;;;5015479;28;20215;-63
2023/04/02 11:37:31;;;;;;;8.07;5.80;;;7.50;99.90;;;;;;5020529;28;20187;-63
2023/04/02 11:40:17;;;;;;;6.13;4.77;;;7.60;99.90;;;;;;5021796;28;20255;-63
2023/04/02 11:42:48;;;;;;;6.23;5.70;;;7.80;99.90;;;;;;4994365;28;20176;-62
2023/04/02 11:45:22;;;;;;;5.37;3.97;;;7.90;99.90;;;;;;5045138;28;20181;-62
2023/04/02 11:48:07;;;;;;;4.20;3.90;;;7.80;99.90;;;;;;5031090;28;20542;-62
2023/04/02 11:50:39;;;;;;;5.27;4.57;;;7.70;99.90;;;;;;5017403;28;20217;-63
2023/04/02 11:53:25;;;;;;;4.23;3.80;;;7.50;99.90;;;;;;5024725;28;20190;-63
2023/04/02 11:56:00;;;;;;;5.13;4.17;;;7.30;99.90;;;;;;5015076;28;20182;-63
2023/04/02 11:58:32;;;;;;;9.23;4.33;;;7.40;99.90;;;;;;5022239;28;20214;-62
2023/04/02 12:01:18;;;;;;;4.70;4.27;;;7.60;99.90;;;;;;5014176;28;20186;-63
2023/04/02 12:03:56;;;;;;;7.70;3.63;;;7.50;99.90;;;;;;5017704;28;20172;-63
2023/04/02 12:06:41;;;;;;;6.80;3.97;;;7.60;99.90;;;;;;5007072;28;20178;-63
2023/04/02 12:09:29;;;;;;;9.07;4.23;;;7.60;99.90;;;;;;5005339;28;20179;-63
2023/04/02 12:12:13;;;;;;;6.60;4.43;;;7.60;99.90;;;;;;5012400;28;20279;-64
2023/04/02 12:14:46;;;;;;;7.07;4.07;;;7.60;99.90;;;;;;5013998;28;20179;-64
2023/04/02 12:17:29;;;;;;;6.27;4.83;;;7.60;99.90;;;;;;5004611;28;20290;-62
2023/04/02 12:20:19;;;;;;;4.97;3.93;;;7.50;99.90;;;;;;4996345;28;20179;-62
2023/04/02 12:22:56;;;;;;;4.33;3.67;;;7.70;99.90;;;;;;5025423;28;20690;-63
2023/04/02 12:25:38;;;;;;;5.00;3.67;;;7.60;99.90;;;;;;5007836;28;20197;-63
2023/04/02 12:28:05;;;;;;;5.70;3.67;;;7.50;99.90;;;;;;5018480;28;20226;-62
2023/04/02 12:30:30;;;;;;;5.80;4.13;;;7.60;99.90;;;;;;5016205;28;20264;-63
2023/04/02 12:32:57;;;;;;;4.60;4.20;;;7.50;99.90;;;;;;5012761;28;20888;-63
2023/04/02 12:35:33;;;;;;;4.87;4.07;;;7.50;99.90;;;;;;5044763;28;20175;-63
2023/04/02 12:37:59;;;;;;;5.33;3.90;;;7.60;99.90;;;;;;5023673;28;20183;-64
2023/04/02 12:40:27;;;;;;;4.73;4.10;;;7.60;99.90;;;;;;5018766;28;20206;-62
2023/04/02 12:42:52;;;;;;;6.27;4.30;;;7.60;99.90;;;;;;5013691;28;20176;-63
2023/04/02 12:45:27;;;;;;;9.13;3.73;;;7.60;99.90;;;;;;4997817;28;20187;-63
2023/04/02 12:47:53;;;;;;;7.60;4.37;;;7.50;99.90;;;;;;5024895;28;20179;-63
2023/04/02 12:50:21;;;;;;;13.47;3.90;;;7.50;99.90;;;;;;5043931;28;20188;-64
2023/04/02 12:52:50;;;;;;;6.73;4.67;;;7.30;99.90;;;;;;5015267;28;20190;-63
2023/04/02 12:55:21;;;;;;;5.10;4.70;;;7.30;99.90;;;;;;5007059;28;20194;-63
2023/04/02 12:57:50;;;;;;;5.57;4.50;;;7.50;99.90;;;;;;5009941;28;20198;-62
2023/04/02 13:00:21;;;;;;;7.90;4.57;;;7.80;99.90;;;;;;4990118;28;20188;-63
2023/04/02 13:02:57;;;;;;;5.80;4.60;;;7.80;99.90;;;;;;5003080;28;20714;-63
2023/04/02 13:05:49;;;;;;;4.47;3.70;;;7.80;99.90;;;;;;5004852;28;20189;-62
2023/04/02 13:08:25;;;;;;;6.10;3.60;;;7.80;99.90;;;;;;5007029;28;20225;-62
2023/04/02 13:10:53;;;;;;;5.03;4.43;;;7.90;99.90;;;;;;5007117;28;20207;-63
2023/04/02 13:13:26;;;;;;;5.80;4.03;;;8.00;99.90;;;;;;5006562;28;20175;-63
2023/04/02 13:16:13;;;;;;;3.43;3.17;;;7.90;99.90;;;;;;5004389;28;20271;-63
2023/04/02 13:18:40;;;;;;;3.70;3.40;;;7.90;99.90;;;;;;5011596;28;20198;-62
2023/04/02 13:21:15;;;;;;;6.37;3.90;;;7.90;99.90;;;;;;5004946;28;20188;-63
2023/04/02 13:23:41;;;;;;;3.80;3.30;;;7.80;99.90;;;;;;5022988;28;20186;-64
2023/04/02 13:26:09;;;;;;;3.63;3.40;;;7.70;99.90;;;;;;5011335;28;20273;-63